Time;durP1;ratioP1;P1;durP2;ratioP2;P2;SDS_P1;SDS_P2;PMS_P1;PMS_P2;Temp;Humidity;BMP_temperature;BMP_pressure;BME280_temperature;BME280_humidity;BME280_pressure;Samples;Min_cycle;Max_cycle;Signal;HPM_P1;HPM_P2
2022/03/13 00:00:36;;;;;;;;;;;9.40;99.90;;;;;;5050796;28;19929;-75
2022/03/13 00:03:03;;;;;;;;;;;9.40;99.90;;;;;;5051047;28;19925;-74
2022/03/13 00:05:30;;;;;;;;;;;9.40;99.90;;;;;;5051049;28;19925;-72
2022/03/13 00:07:58;;;;;;;;;;;9.40;99.90;;;;;;5051515;28;19925;-74
2022/03/13 00:10:27;;;;;;;;;;;9.40;99.90;;;;;;5050752;28;19931;-75
2022/03/13 00:12:54;;;;;;;;;;;9.40;99.90;;;;;;5051220;28;19924;-77
2022/03/13 00:15:23;;;;;;;;;;;9.40;99.90;;;;;;5051386;28;19939;-75
2022/03/13 00:17:50;;;;;;;;;;;9.40;99.90;;;;;;5050983;28;19924;-75
2022/03/13 00:20:17;;;;;;;;;;;9.40;99.90;;;;;;5050450;28;20007;-77
2022/03/13 00:22:44;;;;;;;;;;;9.40;99.90;;;;;;5051010;28;20269;-76
2022/03/13 00:25:13;;;;;;;;;;;9.40;99.90;;;;;;5050847;28;19925;-75
2022/03/13 00:27:40;;;;;;;;;;;9.40;99.90;;;;;;5050815;28;19929;-76
2022/03/13 00:30:07;;;;;;;;;;;9.40;99.90;;;;;;5050086;28;19932;-74
2022/03/13 00:32:34;;;;;;;;;;;9.40;99.90;;;;;;5050657;28;19931;-75
2022/03/13 00:35:02;;;;;;;;;;;9.40;99.90;;;;;;5050872;28;19932;-76
2022/03/13 00:37:29;;;;;;;;;;;9.40;99.90;;;;;;5050660;28;19960;-77
2022/03/13 00:39:56;;;;;;;;;;;9.30;99.90;;;;;;5050080;28;19925;-75
2022/03/13 00:42:25;;;;;;;;;;;9.30;99.90;;;;;;5050407;28;20401;-76
2022/03/13 00:44:52;;;;;;;;;;;9.30;99.90;;;;;;5050192;28;20426;-75
2022/03/13 00:47:19;;;;;;;;;;;9.30;99.90;;;;;;5050211;28;19932;-76
2022/03/13 00:49:46;;;;;;;;;;;9.30;99.90;;;;;;5049659;28;20384;-74
2022/03/13 00:52:13;;;;;;;;;;;9.30;99.90;;;;;;5050188;28;19929;-76
2022/03/13 00:54:40;;;;;;;;;;;9.30;99.90;;;;;;5050251;28;19971;-75
2022/03/13 00:57:06;;;;;;;;;;;9.30;99.90;;;;;;5050233;28;19928;-74
2022/03/13 00:59:34;;;;;;;;;;;9.30;99.90;;;;;;5049654;28;19925;-76
2022/03/13 01:02:01;;;;;;;;;;;9.20;99.90;;;;;;5077729;23;20369;-74
2022/03/13 01:04:28;;;;;;;;;;;9.20;99.90;;;;;;5068366;28;20450;-74
2022/03/13 01:06:55;;;;;;;;;;;9.20;99.90;;;;;;5071327;28;19928;-74
2022/03/13 01:09:21;;;;;;;;;;;9.10;99.90;;;;;;5069244;28;19925;-75
2022/03/13 01:11:48;;;;;;;;;;;9.10;99.90;;;;;;5069882;28;19960;-74
2022/03/13 01:14:16;;;;;;;;;;;9.10;99.90;;;;;;5069964;28;19974;-74
2022/03/13 01:16:45;;;;;;;;;;;9.00;99.90;;;;;;5071149;28;19929;-73
2022/03/13 01:19:11;;;;;;;;;;;9.00;99.90;;;;;;5069726;28;19930;-74
2022/03/13 01:21:42;;;;;;;;;;;9.00;99.90;;;;;;5070011;28;19951;-74
2022/03/13 01:24:19;;;;;;;;;;;8.90;99.90;;;;;;5069788;28;19924;-74
2022/03/13 01:26:49;;;;;;;;;;;8.90;99.90;;;;;;5069957;28;19925;-76
2022/03/13 01:29:17;;;;;;;;;;;8.80;99.90;;;;;;5069327;28;19954;-76
2022/03/13 01:31:46;;;;;;;;;;;8.80;99.90;;;;;;5069919;28;19925;-74
2022/03/13 01:34:14;;;;;;;;;;;8.70;99.90;;;;;;5069823;28;20399;-74
2022/03/13 01:36:41;;;;;;;;;;;8.70;99.90;;;;;;5069662;28;20396;-72
2022/03/13 01:39:08;;;;;;;;;;;8.70;99.90;;;;;;5069208;28;19925;-75
2022/03/13 01:41:35;;;;;;;;;;;8.60;99.90;;;;;;5069273;28;20465;-75
2022/03/13 01:44:02;;;;;;;;;;;8.60;99.90;;;;;;5069818;28;20019;-75
2022/03/13 01:46:29;;;;;;;;;;;8.60;99.90;;;;;;5069486;28;19931;-75
2022/03/13 01:48:59;;;;;;;;;;;8.60;99.90;;;;;;5069316;28;19936;-74
2022/03/13 01:51:26;;;;;;;;;;;8.50;99.90;;;;;;5069447;28;19993;-74
2022/03/13 01:53:54;;;;;;;;;;;8.50;99.90;;;;;;5069282;28;19964;-74
2022/03/13 01:56:21;;;;;;;;;;;8.50;99.90;;;;;;5069556;28;20392;-73
2022/03/13 01:58:50;;;;;;;;;;;8.50;99.90;;;;;;5069184;28;20403;-71
2022/03/13 02:01:17;;;;;;;;;;;8.50;99.90;;;;;;5069450;28;19924;-74
2022/03/13 02:03:44;;;;;;;;;;;8.40;99.90;;;;;;5069497;28;19925;-74
2022/03/13 02:06:12;;;;;;;;;;;8.40;99.90;;;;;;5086379;28;20354;-74
2022/03/13 02:08:40;;;;;;;;;;;8.40;99.90;;;;;;5069193;28;19978;-75
2022/03/13 02:11:08;;;;;;;;;;;8.30;99.90;;;;;;5069403;28;19924;-74
2022/03/13 02:13:36;;;;;;;;;;;8.20;99.90;;;;;;5069286;28;19925;-74
2022/03/13 02:16:03;;;;;;;;;;;8.20;99.90;;;;;;5069463;28;19970;-74
2022/03/13 02:18:30;;;;;;;;;;;8.10;99.90;;;;;;5069501;28;19924;-73
2022/03/13 02:20:56;;;;;;;;;;;8.10;99.90;;;;;;5069247;28;19932;-73
2022/03/13 02:23:25;;;;;;;;;;;8.00;99.90;;;;;;5072386;28;19932;-73
2022/03/13 02:25:56;;;;;;;;;;;7.90;99.90;;;;;;5073030;28;20393;-74
2022/03/13 02:28:23;;;;;;;;;;;7.80;99.90;;;;;;5073032;28;19924;-74
2022/03/13 02:30:50;;;;;;;;;;;7.80;99.90;;;;;;5072403;28;19924;-73
2022/03/13 02:33:18;;;;;;;;;;;7.70;99.90;;;;;;5072761;28;19925;-74
2022/03/13 02:35:48;;;;;;;;;;;7.70;99.90;;;;;;5073039;28;19929;-75
2022/03/13 02:38:15;;;;;;;;;;;7.70;99.90;;;;;;5072591;28;20293;-74
2022/03/13 02:40:44;;;;;;;;;;;7.70;99.90;;;;;;5072312;28;19931;-74
2022/03/13 02:43:10;;;;;;;;;;;7.70;99.90;;;;;;5072712;28;20273;-73
2022/03/13 02:45:38;;;;;;;;;;;7.70;99.90;;;;;;5072727;28;19932;-72
2022/03/13 02:48:07;;;;;;;;;;;7.70;99.90;;;;;;5072761;28;19928;-73
2022/03/13 02:50:34;;;;;;;;;;;7.70;99.90;;;;;;5072157;28;20293;-75
2022/03/13 02:53:01;;;;;;;;;;;7.60;99.90;;;;;;5072287;28;19924;-73
2022/03/13 02:55:28;;;;;;;;;;;7.50;99.90;;;;;;5072658;28;19924;-73
2022/03/13 02:57:56;;;;;;;;;;;7.50;99.90;;;;;;5072721;28;19951;-73
2022/03/13 03:00:39;;;;;;;;;;;7.50;99.90;;;;;;5071735;28;19985;-74
2022/03/13 03:03:06;;;;;;;;;;;7.50;99.90;;;;;;5072069;28;20319;-74
2022/03/13 03:05:33;;;;;;;;;;;7.50;99.90;;;;;;5072275;28;19978;-73
2022/03/13 03:08:01;;;;;;;;;;;7.50;99.90;;;;;;5072095;28;19924;-74
2022/03/13 03:10:28;;;;;;;;;;;7.50;99.90;;;;;;5071770;28;19924;-72
2022/03/13 03:12:56;;;;;;;;;;;7.50;99.90;;;;;;5072024;28;19929;-74
2022/03/13 03:15:25;;;;;;;;;;;7.50;99.90;;;;;;5071964;28;19925;-74
2022/03/13 03:17:51;;;;;;;;;;;7.50;99.90;;;;;;5072171;28;19925;-74
2022/03/13 03:20:18;;;;;;;;;;;7.50;99.90;;;;;;5071597;28;19924;-73
2022/03/13 03:22:45;;;;;;;;;;;7.50;99.90;;;;;;5072737;28;20395;-73
2022/03/13 03:25:12;;;;;;;;;;;7.50;99.90;;;;;;5055610;28;19925;-74
2022/03/13 03:27:40;;;;;;;;;;;7.50;99.90;;;;;;5051977;28;20332;-73
2022/03/13 03:30:09;;;;;;;;;;;7.50;99.90;;;;;;5051353;28;19931;-73
2022/03/13 03:32:36;;;;;;;;;;;7.50;99.90;;;;;;5051211;28;19929;-73
2022/03/13 03:35:03;;;;;;;;;;;7.50;99.90;;;;;;5051674;28;19928;-73
2022/03/13 03:37:32;;;;;;;;;;;7.50;99.90;;;;;;5051709;28;19924;-73
2022/03/13 03:39:59;;;;;;;;;;;7.40;99.90;;;;;;5051336;28;19962;-73
2022/03/13 03:42:26;;;;;;;;;;;7.50;99.90;;;;;;5056783;28;19963;-74
2022/03/13 03:44:53;;;;;;;;;;;7.50;99.90;;;;;;5052405;28;19925;-73
2022/03/13 03:47:21;;;;;;;;;;;7.50;99.90;;;;;;5060582;28;19928;-73
2022/03/13 03:49:48;;;;;;;;;;;7.50;99.90;;;;;;5058185;28;19979;-72
2022/03/13 03:52:14;;;;;;;;;;;7.50;99.90;;;;;;5051293;28;20285;-74
2022/03/13 03:54:41;;;;;;;;;;;7.50;99.90;;;;;;5051434;28;19924;-73
2022/03/13 03:57:08;;;;;;;;;;;7.50;99.90;;;;;;5051527;28;19946;-73
2022/03/13 03:59:35;;;;;;;;;;;7.50;99.90;;;;;;5051117;28;19931;-72
2022/03/13 04:02:01;;;;;;;;;;;7.50;99.90;;;;;;5051105;28;19925;-74
2022/03/13 04:04:30;;;;;;;;;;;7.50;99.90;;;;;;5051083;28;19929;-73
2022/03/13 04:06:57;;;;;;;;;;;7.50;99.90;;;;;;5051106;28;19924;-73
2022/03/13 04:09:24;;;;;;;;;;;7.60;99.90;;;;;;5050871;28;19924;-73
2022/03/13 04:11:52;;;;;;;;;;;7.70;99.90;;;;;;5051072;28;19924;-73
2022/03/13 04:14:20;;;;;;;;;;;7.70;99.90;;;;;;5050877;28;19924;-74
2022/03/13 04:16:47;;;;;;;;;;;7.70;99.90;;;;;;5050925;28;19935;-73
2022/03/13 04:19:13;;;;;;;;;;;7.80;99.90;;;;;;5050334;28;19928;-73
2022/03/13 04:21:42;;;;;;;;;;;7.80;99.90;;;;;;5050743;28;19925;-75
2022/03/13 04:24:10;;;;;;;;;;;7.80;99.90;;;;;;5050695;28;19924;-73
2022/03/13 04:26:39;;;;;;;;;;;7.80;99.90;;;;;;5050875;28;19965;-74
2022/03/13 04:29:06;;;;;;;;;;;7.90;99.90;;;;;;5050046;28;19956;-74
2022/03/13 04:31:37;;;;;;;;;;;7.80;99.90;;;;;;5050408;28;19925;-77
2022/03/13 04:34:04;;;;;;;;;;;7.90;99.90;;;;;;5050837;28;20355;-75
2022/03/13 04:36:32;;;;;;;;;;;7.90;99.90;;;;;;5050493;28;20391;-74
2022/03/13 04:39:01;;;;;;;;;;;7.90;99.90;;;;;;5050180;28;19939;-76
2022/03/13 04:41:27;;;;;;;;;;;7.90;99.90;;;;;;5050273;28;20023;-75
2022/03/13 04:43:54;;;;;;;;;;;7.90;99.90;;;;;;5049847;28;19924;-75
2022/03/13 04:46:21;;;;;;;;;;;7.90;99.90;;;;;;5050484;28;19978;-75
2022/03/13 04:48:48;;;;;;;;;;;7.80;99.90;;;;;;5050203;28;19929;-76
2022/03/13 04:51:15;;;;;;;;;;;7.70;99.90;;;;;;5050491;28;19995;-76
2022/03/13 04:53:42;;;;;;;;;;;7.70;99.90;;;;;;5050371;28;19931;-77
2022/03/13 04:56:10;;;;;;;;;;;7.70;99.90;;;;;;5050729;28;19925;-76
2022/03/13 04:58:37;;;;;;;;;;;7.70;99.90;;;;;;5050486;28;20388;-74
2022/03/13 05:01:04;;;;;;;;;;;7.60;99.90;;;;;;5050191;28;19925;-76
2022/03/13 05:03:33;;;;;;;;;;;7.60;99.90;;;;;;5049986;28;20008;-75
2022/03/13 05:05:59;;;;;;;;;;;7.60;99.90;;;;;;5050404;28;19933;-75
2022/03/13 05:08:26;;;;;;;;;;;7.60;99.90;;;;;;5050041;28;20124;-75
2022/03/13 05:10:53;;;;;;;;;;;7.60;99.90;;;;;;5049527;28;19929;-75
2022/03/13 05:13:23;;;;;;;;;;;7.50;99.90;;;;;;5049875;28;19925;-75
2022/03/13 05:15:52;;;;;;;;;;;7.50;99.90;;;;;;5050244;28;20375;-75
2022/03/13 05:18:19;;;;;;;;;;;7.40;99.90;;;;;;5049854;28;20438;-75
2022/03/13 05:20:46;;;;;;;;;;;7.40;99.90;;;;;;5049663;28;19978;-74
2022/03/13 05:23:14;;;;;;;;;;;7.40;99.90;;;;;;5049833;28;19924;-75
2022/03/13 05:25:41;;;;;;;;;;;7.40;99.90;;;;;;5049882;28;20000;-75
2022/03/13 05:28:09;;;;;;;;;;;7.30;99.90;;;;;;5049741;28;20008;-75
2022/03/13 05:30:38;;;;;;;;;;;7.30;99.90;;;;;;5049482;28;19978;-75
2022/03/13 05:33:05;;;;;;;;;;;7.40;99.90;;;;;;5049756;28;20320;-75
2022/03/13 05:35:32;;;;;;;;;;;7.30;99.90;;;;;;5049992;28;19964;-73
2022/03/13 05:37:59;;;;;;;;;;;7.40;99.90;;;;;;5049940;28;19929;-74
2022/03/13 05:40:27;;;;;;;;;;;7.40;99.90;;;;;;5049263;28;19933;-75
2022/03/13 05:42:55;;;;;;;;;;;7.50;99.90;;;;;;5049842;28;19955;-74
2022/03/13 05:45:23;;;;;;;;;;;7.50;99.90;;;;;;5049785;28;19925;-74
2022/03/13 05:47:52;;;;;;;;;;;7.40;99.90;;;;;;5049844;28;20015;-74
2022/03/13 05:50:32;;;;;;;;;;;7.40;99.90;;;;;;5049191;28;20384;-74
2022/03/13 05:53:02;;;;;;;;;;;7.50;99.90;;;;;;5049989;28;20021;-74
2022/03/13 05:55:29;;;;;;;;;;;7.50;99.90;;;;;;5050920;28;19924;-77
2022/03/13 05:57:56;;;;;;;;;;;7.50;99.90;;;;;;5054068;28;19925;-75
2022/03/13 06:00:25;;;;;;;;;;;7.50;99.90;;;;;;5053623;28;19925;-75
2022/03/13 06:02:53;;;;;;;;;;;7.50;99.90;;;;;;5061564;28;19954;-75
2022/03/13 06:05:20;;;;;;;;;;;7.50;99.90;;;;;;5067248;28;19924;-75
2022/03/13 06:07:48;;;;;;;;;;;7.60;99.90;;;;;;5058645;28;20362;-73
2022/03/13 06:10:16;;;;;;;;;;;7.60;99.90;;;;;;5069708;28;19932;-74
2022/03/13 06:12:43;;;;;;;;;;;7.60;99.90;;;;;;5077653;28;19924;-74
2022/03/13 06:15:12;;;;;;;;;;;7.60;99.90;;;;;;5067343;28;19940;-77
2022/03/13 06:17:43;;;;;;;;;;;7.60;99.90;;;;;;5071868;28;19925;-74
2022/03/13 06:20:11;;;;;;;;;;;7.60;99.90;;;;;;5070006;28;19935;-75
2022/03/13 06:22:38;;;;;;;;;;;7.60;99.90;;;;;;5069479;28;19928;-74
2022/03/13 06:25:06;;;;;;;;;;;7.70;99.90;;;;;;5082082;28;19974;-74
2022/03/13 06:27:33;;;;;;;;;;;7.70;99.90;;;;;;5064659;28;20396;-75
2022/03/13 06:30:10;;;;;;;;;;;7.70;99.90;;;;;;5062795;28;19975;-76
2022/03/13 06:32:37;;;;;;;;;;;7.70;99.90;;;;;;5061326;28;20276;-74
2022/03/13 06:35:04;;;;;;;;;;;7.70;99.90;;;;;;5063184;28;19929;-76
2022/03/13 06:37:32;;;;;;;;;;;7.80;99.90;;;;;;5063381;28;19928;-77
2022/03/13 06:39:59;;;;;;;;;;;7.80;99.90;;;;;;5058852;28;19990;-80
2022/03/13 06:42:26;;;;;;;;;;;7.90;99.90;;;;;;5063881;28;19924;-76
2022/03/13 06:44:53;;;;;;;;;;;7.90;99.90;;;;;;5057442;28;19931;-77
2022/03/13 06:47:21;;;;;;;;;;;8.00;99.90;;;;;;5065011;28;19994;-76
2022/03/13 06:49:48;;;;;;;;;;;8.00;99.90;;;;;;5082437;28;19928;-77
2022/03/13 06:52:15;;;;;;;;;;;8.10;99.90;;;;;;5086223;28;19974;-76
2022/03/13 06:54:43;;;;;;;;;;;8.10;99.90;;;;;;5061422;28;19932;-77
2022/03/13 06:57:11;;;;;;;;;;;8.10;99.90;;;;;;5078120;28;19932;-76
2022/03/13 06:59:37;;;;;;;;;;;8.10;99.90;;;;;;5071726;28;19924;-76
2022/03/13 07:02:04;;;;;;;;;;;8.20;99.90;;;;;;5062540;28;20354;-76
2022/03/13 07:04:31;;;;;;;;;;;8.20;99.90;;;;;;5070654;28;19925;-76
2022/03/13 07:06:58;;;;;;;;;;;8.20;99.90;;;;;;5069192;28;19925;-75
2022/03/13 07:09:26;;;;;;;;;;;8.30;99.90;;;;;;5080177;28;19924;-76
2022/03/13 07:11:54;;;;;;;;;;;8.30;99.90;;;;;;5065350;28;20367;-77
2022/03/13 07:14:21;;;;;;;;;;;8.30;99.90;;;;;;5052588;28;19929;-77
2022/03/13 07:16:48;;;;;;;;;;;8.30;99.90;;;;;;5070019;28;19978;-77
2022/03/13 07:19:15;;;;;;;;;;;8.40;99.90;;;;;;5055583;28;19947;-77
2022/03/13 07:21:41;;;;;;;;;;;8.40;99.90;;;;;;5065285;28;19978;-77
2022/03/13 07:24:08;;;;;;;;;;;8.50;99.90;;;;;;5056204;28;19928;-77
2022/03/13 07:26:35;;;;;;;;;;;8.50;99.90;;;;;;5070567;28;19976;-77
2022/03/13 07:29:03;;;;;;;;;;;8.50;99.90;;;;;;5066574;28;19932;-77
2022/03/13 07:31:30;;;;;;;;;;;8.60;99.90;;;;;;5076908;28;19933;-76
2022/03/13 07:33:57;;;;;;;;;;;8.60;99.90;;;;;;5059655;28;19932;-77
2022/03/13 07:36:24;;;;;;;;;;;8.70;99.90;;;;;;5067064;28;19925;-78
2022/03/13 07:38:51;;;;;;;;;;;8.70;99.90;;;;;;5075571;28;19924;-78
2022/03/13 07:41:21;;;;;;;;;;;8.80;99.90;;;;;;5080491;28;19929;-77
2022/03/13 07:43:47;;;;;;;;;;;8.80;99.90;;;;;;5065384;28;19928;-82
2022/03/13 07:46:15;;;;;;;;;;;8.80;99.90;;;;;;5082682;28;19924;-79
2022/03/13 07:48:44;;;;;;;;;;;8.70;99.90;;;;;;5065183;28;19924;-77
2022/03/13 07:51:11;;;;;;;;;;;8.80;99.90;;;;;;5068915;28;20376;-77
2022/03/13 07:53:38;;;;;;;;;;;8.80;99.90;;;;;;5065310;28;20336;-77
2022/03/13 07:56:05;;;;;;;;;;;8.90;99.90;;;;;;5064991;28;19928;-78
2022/03/13 07:58:32;;;;;;;;;;;8.90;99.90;;;;;;5064922;28;19924;-77
2022/03/13 08:00:59;;;;;;;;;;;8.90;99.90;;;;;;5061945;28;20020;-77
2022/03/13 08:03:28;;;;;;;;;;;9.00;99.90;;;;;;5080298;28;19975;-77
2022/03/13 08:05:55;;;;;;;;;;;9.00;99.90;;;;;;5077148;28;20034;-78
2022/03/13 08:08:21;;;;;;;;;;;9.00;99.90;;;;;;5076762;28;19932;-78
2022/03/13 08:10:48;;;;;;;;;;;9.10;99.90;;;;;;5081246;28;19970;-78
2022/03/13 08:13:15;;;;;;;;;;;9.10;99.90;;;;;;5071125;28;19932;-78
2022/03/13 08:15:41;;;;;;;;;;;9.20;99.90;;;;;;5069406;28;19924;-77
2022/03/13 08:18:09;;;;;;;;;;;9.10;99.90;;;;;;5084537;28;19924;-78
2022/03/13 08:20:38;;;;;;;;;;;9.20;99.90;;;;;;5059415;28;19968;-78
2022/03/13 08:23:05;;;;;;;;;;;9.20;99.90;;;;;;5077389;28;20023;-77
2022/03/13 08:25:31;;;;;;;;;;;9.30;99.90;;;;;;5057244;28;20421;-77
2022/03/13 08:27:59;;;;;;;;;;;9.40;99.90;;;;;;5059556;28;19925;-77
2022/03/13 08:30:26;;;;;;;;;;;9.40;99.90;;;;;;5078833;28;20387;-78
2022/03/13 08:32:53;;;;;;;;;;;9.40;99.90;;;;;;5058165;28;19924;-77
2022/03/13 08:35:20;;;;;;;;;;;9.40;99.90;;;;;;5070959;28;19936;-77
2022/03/13 08:37:52;;;;;;;;;;;9.50;99.90;;;;;;5074638;28;19933;-79
2022/03/13 08:40:19;;;;;;;;;;;9.60;99.90;;;;;;5069555;28;19925;-78
2022/03/13 08:42:46;;;;;;;;;;;9.70;99.90;;;;;;5087741;28;20456;-77
2022/03/13 08:45:13;;;;;;;;;;;9.80;99.90;;;;;;5059569;28;19924;-75
2022/03/13 08:47:40;;;;;;;;;;;9.90;99.90;;;;;;5070691;28;19928;-80
2022/03/13 08:50:07;;;;;;;;;;;9.90;99.90;;;;;;5070728;28;19936;-78
2022/03/13 08:52:35;;;;;;;;;;;10.10;99.90;;;;;;5070501;28;20391;-76
2022/03/13 08:55:04;;;;;;;;;;;10.10;99.90;;;;;;5071365;28;19951;-78
2022/03/13 08:57:30;;;;;;;;;;;10.20;99.90;;;;;;5070465;28;19929;-79
2022/03/13 08:59:57;;;;;;;;;;;10.40;99.90;;;;;;5069771;28;19924;-78
2022/03/13 09:02:24;;;;;;;;;;;10.50;99.90;;;;;;5071068;28;19978;-78
2022/03/13 09:04:51;;;;;;;;;;;10.60;99.90;;;;;;5070662;28;19928;-82
2022/03/13 09:07:18;;;;;;;;;;;10.70;99.90;;;;;;5070911;28;19985;-81
2022/03/13 09:09:47;;;;;;;;;;;10.80;99.90;;;;;;5062932;28;20011;-78
2022/03/13 09:12:16;;;;;;;;;;;11.00;99.90;;;;;;5068899;28;19947;-79
2022/03/13 09:14:42;;;;;;;;;;;11.10;99.90;;;;;;5073490;28;19930;-77
2022/03/13 09:17:09;;;;;;;;;;;11.10;99.90;;;;;;5070342;28;19933;-76
2022/03/13 09:19:36;;;;;;;;;;;11.10;99.90;;;;;;5069518;28;19925;-78
2022/03/13 09:22:03;;;;;;;;;;;11.20;99.90;;;;;;5066370;28;19932;-77
2022/03/13 09:24:30;;;;;;;;;;;11.40;99.90;;;;;;5055476;28;19954;-79
2022/03/13 09:26:57;;;;;;;;;;;11.50;99.90;;;;;;5049837;28;19925;-77
2022/03/13 09:29:25;;;;;;;;;;;11.50;99.90;;;;;;5049053;28;19924;-77
2022/03/13 09:31:51;;;;;;;;;;;11.50;99.90;;;;;;5049527;28;19929;-77
2022/03/13 09:34:18;;;;;;;;;;;11.40;99.90;;;;;;5049768;28;19925;-79
2022/03/13 09:36:45;;;;;;;;;;;11.30;99.90;;;;;;5049758;28;19928;-78
2022/03/13 09:39:12;;;;;;;;;;;11.30;99.90;;;;;;5049467;28;19929;-77
2022/03/13 09:41:39;;;;;;;;;;;11.40;99.90;;;;;;5049843;28;20039;-79
2022/03/13 09:44:07;;;;;;;;;;;11.50;99.90;;;;;;5058583;28;19928;-76
2022/03/13 09:46:36;;;;;;;;;;;11.60;99.90;;;;;;5055400;28;19925;-76
2022/03/13 09:49:06;;;;;;;;;;;11.70;99.90;;;;;;5065737;28;19925;-76
2022/03/13 09:51:33;;;;;;;;;;;11.80;99.90;;;;;;5049776;28;19986;-75
2022/03/13 09:54:01;;;;;;;;;;;11.80;99.90;;;;;;5049933;28;19933;-77
2022/03/13 09:56:27;;;;;;;;;;;11.90;99.90;;;;;;5049849;28;20331;-75
2022/03/13 09:58:54;;;;;;;;;;;12.00;99.90;;;;;;5049233;28;19925;-76
2022/03/13 10:01:21;;;;;;;;;;;12.00;99.90;;;;;;5049702;28;19925;-77
2022/03/13 10:03:49;;;;;;;;;;;12.10;99.90;;;;;;5049680;28;20335;-77
2022/03/13 10:06:16;;;;;;;;;;;12.10;99.90;;;;;;5050513;28;19925;-72
2022/03/13 10:08:45;;;;;;;;;;;12.30;99.90;;;;;;5049913;28;20028;-76
2022/03/13 10:11:12;;;;;;;;;;;12.40;99.90;;;;;;5059228;28;19928;-78
2022/03/13 10:13:39;;;;;;;;;;;12.40;99.90;;;;;;5069665;28;19968;-78
2022/03/13 10:16:07;;;;;;;;;;;12.50;99.90;;;;;;5069557;28;19956;-77
2022/03/13 10:18:34;;;;;;;;;;;12.60;99.90;;;;;;5069540;28;20347;-77
2022/03/13 10:21:11;;;;;;;;;;;12.70;99.90;;;;;;5066113;28;19937;-79
2022/03/13 10:23:37;;;;;;;;;;;12.80;99.90;;;;;;5062246;28;19925;-77
2022/03/13 10:26:06;;;;;;;;;;;12.90;99.90;;;;;;5064558;28;19925;-78
2022/03/13 10:28:33;;;;;;;;;;;13.00;99.90;;;;;;5064659;28;19939;-77
2022/03/13 10:31:07;;;;;;;;;;;13.10;99.90;;;;;;5068552;28;19935;-77
2022/03/13 10:33:51;;;;;;;;;;;13.20;99.90;;;;;;5057761;28;20408;-77
2022/03/13 10:36:21;;;;;;;;;;;13.20;99.90;;;;;;5066399;28;19932;-80
2022/03/13 10:38:49;;;;;;;;;;;13.40;99.90;;;;;;5066430;28;19935;-77
2022/03/13 10:41:16;;;;;;;;;;;13.60;99.90;;;;;;5062955;28;19924;-78
2022/03/13 10:43:49;;;;;;;;;;;13.70;99.90;;;;;;5063323;28;19988;-77
2022/03/13 10:46:24;;;;;;;;;;;13.70;99.90;;;;;;5055056;28;19978;-77
2022/03/13 10:48:52;;;;;;;;;;;13.90;99.90;;;;;;5052621;28;19929;-77
2022/03/13 10:51:32;;;;;;;;;;;14.00;99.90;;;;;;5052615;28;20453;-77
2022/03/13 10:53:59;;;;;;;;;;;14.10;99.90;;;;;;5053030;28;19925;-78
2022/03/13 10:56:27;;;;;;;;;;;14.30;99.90;;;;;;5052863;28;19928;-77
2022/03/13 10:58:54;;;;;;;;;;;14.40;99.90;;;;;;5052285;28;19925;-78
2022/03/13 11:01:23;;;;;;;;;;;14.60;99.90;;;;;;5052801;28;19931;-78
2022/03/13 11:03:52;;;;;;;;;;;14.70;99.90;;;;;;5052165;28;19974;-80
2022/03/13 11:06:19;;;;;;;;;;;14.90;99.90;;;;;;5052215;28;19924;-78
2022/03/13 11:08:48;;;;;;;;;;;15.20;99.90;;;;;;5068790;28;19932;-76
2022/03/13 11:11:15;;;;;;;;;;;15.50;99.90;;;;;;5062652;28;19959;-77
2022/03/13 11:13:42;;;;;;;;;;;15.70;99.90;;;;;;5072174;28;19924;-79
2022/03/13 11:16:10;;;;;;;;;;;15.90;99.90;;;;;;5072415;28;20407;-78
2022/03/13 11:18:38;;;;;;;;;;;16.20;99.90;;;;;;5072189;28;19924;-78
2022/03/13 11:21:08;;;;;;;;;;;16.40;99.90;;;;;;5072294;28;19924;-78
2022/03/13 11:23:34;;;;;;;;;;;16.80;99.90;;;;;;5072534;28;19925;-80
2022/03/13 11:26:03;;;;;;;;;;;17.00;99.90;;;;;;5072704;28;19924;-78
2022/03/13 11:28:30;;;;;;;;;;;17.00;99.90;;;;;;5072091;28;19936;-79
2022/03/13 11:31:02;;;;;;;;;;;17.20;99.90;;;;;;5070836;28;20483;-79
2022/03/13 11:33:36;;;;;;;;;;;17.40;99.90;;;;;;5063510;28;19925;-78
2022/03/13 11:36:22;;;;;;;;;;;17.50;99.90;;;;;;5074349;28;19928;-79
2022/03/13 11:38:54;;;;;;;;;;;17.70;99.90;;;;;;5063928;28;19989;-78
2022/03/13 11:41:36;;;;;;;;;;;17.80;99.90;;;;;;5071705;28;20288;-78
2022/03/13 11:44:30;;;;;;;;;;;18.00;99.90;;;;;;5065399;28;19924;-78
2022/03/13 11:46:58;;;;;;;;;;;18.20;99.90;;;;;;5079706;28;20027;-76
2022/03/13 11:49:36;;;;;;;;;;;22.50;99.90;;;;;;5066416;28;19974;-77
2022/03/13 11:52:20;;;;;;;;;;;25.50;97.50;;;;;;5073586;28;19928;-78
2022/03/13 11:54:55;;;;;;;;;;;27.00;95.60;;;;;;5070662;28;20015;-78
2022/03/13 11:57:22;;;;;;;;;;;28.40;95.00;;;;;;5071488;28;19971;-78
2022/03/13 12:00:08;;;;;;;;;;;29.40;93.70;;;;;;5065871;28;19981;-78
2022/03/13 12:02:47;;;;;;;;;;;30.00;93.50;;;;;;5052265;28;19960;-77
2022/03/13 12:05:29;;;;;;;;;;;31.30;93.70;;;;;;5051333;28;19925;-78
2022/03/13 12:07:57;;;;;;;;;;;32.50;93.10;;;;;;5051027;28;19932;-77
2022/03/13 12:10:31;;;;;;;;;;;30.80;91.20;;;;;;5053291;28;19925;-77
2022/03/13 12:12:58;;;;;;;;;;;;;;;;;;5065966;28;20396;-81
2022/03/13 12:15:26;;;;;;;;;;;23.30;91.30;;;;;;5069060;28;20297;-76
2022/03/13 12:17:55;;;;;;;;;;;22.50;91.10;;;;;;5065333;28;19929;-78
2022/03/13 12:20:22;;;;;;;;;;;22.90;92.40;;;;;;5064553;28;19924;-79
2022/03/13 12:22:54;;;;;;;;;;;22.60;91.30;;;;;;5070931;28;19925;-79
2022/03/13 12:25:22;;;;;;;;;;;22.00;92.00;;;;;;5073528;28;19929;-79
2022/03/13 12:27:49;;;;;;;;;;;21.60;92.10;;;;;;5071346;28;19925;-79
2022/03/13 12:30:26;;;;;;;;;;;21.40;92.40;;;;;;5072031;28;20298;-79
2022/03/13 12:33:05;;;;;;;;;;;23.20;93.10;;;;;;5073342;28;20349;-79
2022/03/13 12:35:32;;;;;;;;;;;24.80;92.50;;;;;;5072524;28;19925;-79
2022/03/13 12:38:00;;;;;;;;;;;23.80;91.50;;;;;;5067541;28;19929;-79
2022/03/13 12:40:27;;;;;;;;;;;22.80;91.60;;;;;;5078095;28;19960;-76
2022/03/13 12:42:54;;;;;;;;;;;21.40;91.50;;;;;;5067663;28;19924;-77
2022/03/13 12:45:22;;;;;;;;;;;20.30;95.70;;;;;;5066080;28;19932;-81
2022/03/13 12:47:50;;;;;;;;;;;;;;;;;;5056438;28;19924;-78
2022/03/13 12:50:19;;;;;;;;;;;19.10;91.70;;;;;;5051277;28;19925;-79
2022/03/13 12:52:59;;;;;;;;;;;19.00;92.30;;;;;;5051577;28;19931;-79
2022/03/13 12:55:26;;;;;;;;;;;18.80;92.30;;;;;;5051072;28;20384;-78
2022/03/13 12:57:54;;;;;;;;;;;18.70;92.70;;;;;;5051283;28;20005;-79
2022/03/13 13:00:31;;;;;;;;;;;18.70;93.30;;;;;;5050366;28;19971;-77
2022/03/13 13:02:59;;;;;;;;;;;18.50;93.10;;;;;;5049877;28;19925;-79
2022/03/13 13:05:27;;;;;;;;;;;18.30;92.90;;;;;;5050592;28;20007;-78
2022/03/13 13:07:54;;;;;;;;;;;18.20;93.30;;;;;;5050874;28;20335;-79
2022/03/13 13:10:21;;;;;;;;;;;18.30;93.60;;;;;;5053282;28;19932;-78
2022/03/13 13:12:48;;;;;;;;;;;18.20;93.00;;;;;;5070852;28;19924;-77
2022/03/13 13:15:18;;;;;;;;;;;18.10;93.00;;;;;;5071017;28;19928;-79
2022/03/13 13:17:46;;;;;;;;;;;18.10;93.30;;;;;;5070798;28;19993;-78
2022/03/13 13:20:20;;;;;;;;;;;18.00;93.20;;;;;;5070137;28;19931;-79
2022/03/13 13:22:48;;;;;;;;;;;18.00;93.30;;;;;;5070540;28;20015;-77
2022/03/13 13:25:18;;;;;;;;;;;17.90;93.60;;;;;;5070553;28;20066;-78
2022/03/13 13:27:45;;;;;;;;;;;17.90;93.50;;;;;;5070869;28;19960;-78
2022/03/13 13:30:17;;;;;;;;;;;17.80;93.40;;;;;;5072677;28;19950;-80
2022/03/13 13:32:50;;;;;;;;;;;17.70;93.20;;;;;;5077005;28;19929;-80
2022/03/13 13:35:25;;;;;;;;;;;18.10;93.40;;;;;;5078284;28;19925;-79
2022/03/13 13:37:58;;;;;;;;;;;18.30;93.60;;;;;;5077602;28;19928;-78
2022/03/13 13:40:25;;;;;;;;;;;18.30;93.30;;;;;;5077620;28;20339;-80
2022/03/13 13:42:56;;;;;;;;;;;18.40;93.60;;;;;;5078111;28;19925;-80
2022/03/13 13:45:33;;;;;;;;;;;18.60;93.40;;;;;;5077995;28;19925;-80
2022/03/13 13:48:14;;;;;;;;;;;18.80;93.10;;;;;;5077431;28;19928;-78
2022/03/13 13:50:42;;;;;;;;;;;20.10;93.20;;;;;;5072072;28;19970;-79
2022/03/13 13:53:10;;;;;;;;;;;21.10;93.00;;;;;;5073188;28;20049;-78
2022/03/13 13:55:38;;;;;;;;;;;21.20;92.80;;;;;;5072857;28;20407;-79
2022/03/13 13:58:14;;;;;;;;;;;20.90;92.80;;;;;;5073911;28;19934;-79
2022/03/13 14:00:42;;;;;;;;;;;20.70;92.80;;;;;;5070955;28;20407;-79
2022/03/13 14:03:09;;;;;;;;;;;19.90;92.60;;;;;;5071851;28;19936;-78
2022/03/13 14:05:35;;;;;;;;;;;19.40;92.60;;;;;;5071291;28;19925;-79
2022/03/13 14:08:02;;;;;;;;;;;19.20;93.00;;;;;;5070988;28;19964;-78
2022/03/13 14:10:31;;;;;;;;;;;19.10;92.90;;;;;;5066650;28;19925;-79
2022/03/13 14:12:58;;;;;;;;;;;19.00;93.20;;;;;;5050859;28;19925;-80
2022/03/13 14:15:25;;;;;;;;;;;18.90;93.50;;;;;;5050829;28;19935;-79
2022/03/13 14:17:52;;;;;;;;;;;18.90;93.20;;;;;;5070926;28;19925;-80
2022/03/13 14:20:19;;;;;;;;;;;18.80;93.20;;;;;;5053963;28;19928;-79
2022/03/13 14:22:45;;;;;;;;;;;18.90;93.40;;;;;;5055978;28;20384;-78
2022/03/13 14:25:12;;;;;;;;;;;19.10;93.70;;;;;;5055476;28;19931;-81
2022/03/13 14:27:41;;;;;;;;;;;19.20;93.70;;;;;;5054791;28;20285;-80
2022/03/13 14:30:09;;;;;;;;;;;19.20;93.60;;;;;;5053743;28;20385;-79
2022/03/13 14:32:36;;;;;;;;;;;19.30;93.50;;;;;;5054253;28;19925;-78